ENAT/ALF METAR and TAF weather

Enter ICAO airport designator
Station Type Date Time Source
ENAT METAR 2019/08/22 08:50 UTC NOAA

ENAT 220850Z VRB02KT 9999 SCT030 SCT070 14/10 Q1015 RMK WIND 700FT VRB03KT


Station Type Date Time Source
ENAT Decoded METAR 2019/08/22 08:50 UTC NOAA

Station name not available
Aug 22, 2019 - 04:50 AM EDT / 2019.08.22 0850 UTC
Wind: Variable at 2 MPH (2 KT):0
Visibility: greater than 7 mile(s):0
Sky conditions: partly cloudy
Temperature: 57 F (14 C)
Dew Point: 50 F (10 C)
Relative Humidity: 76%
Pressure (altimeter): 29.97 in. Hg (1015 hPa)
ob: ENAT 220850Z VRB02KT 9999 SCT030 SCT070 14/10 Q1015 RMK WIND 700FT VRB03KT
cycle: 9

Station Type Date Time Source
ENAT TAF 2008/11/30 23:00 UTC NOAA

TAF TAF ENAT 302300Z 3023/0102 22005KT 7000 -SN FEW008 BKN020
TEMPO 3023/0102 3000 -SN VV012

Example: see airport list